Time;durP1;ratioP1;P1;durP2;ratioP2;P2;SDS_P1;SDS_P2;PMS_P1;PMS_P2;Temp;Humidity;BMP_temperature;BMP_pressure;BME280_temperature;BME280_humidity;BME280_pressure;Samples;Min_cycle;Max_cycle;Signal;HPM_P1;HPM_P2
2022/07/26 00:00:52;;;;;;;10.50;5.13;;;;;;;20.24;100.00;96537.63;5070819;28;20040;-68
2022/07/26 00:03:17;;;;;;;11.35;5.30;;;;;;;20.30;100.00;96545.47;5070761;28;20086;-67
2022/07/26 00:05:43;;;;;;;12.98;5.07;;;;;;;20.29;100.00;96536.31;5070579;28;20040;-68
2022/07/26 00:08:11;;;;;;;11.82;5.13;;;;;;;20.33;100.00;96539.00;5070570;28;20037;-68
2022/07/26 00:10:43;;;;;;;9.18;4.43;;;;;;;20.30;100.00;96531.56;5052799;28;20033;-68
2022/07/26 00:13:08;;;;;;;10.23;4.80;;;;;;;20.23;100.00;96532.50;5070654;28;20120;-68
2022/07/26 00:15:35;;;;;;;12.80;5.22;;;;;;;20.21;100.00;96535.72;5070318;28;20107;-68
2022/07/26 00:18:01;;;;;;;13.02;5.30;;;;;;;20.31;100.00;96533.09;5070764;28;20086;-68
2022/07/26 00:20:27;;;;;;;13.70;5.00;;;;;;;20.54;100.00;96546.81;5070649;28;20109;-68
2022/07/26 00:22:52;;;;;;;15.57;5.22;;;;;;;20.41;100.00;96545.97;5070503;28;20831;-67
2022/07/26 00:25:17;;;;;;;10.27;4.63;;;;;;;20.36;100.00;96543.72;5070459;28;20070;-68
2022/07/26 00:27:43;;;;;;;9.43;5.05;;;;;;;20.37;100.00;96545.28;5052577;28;20040;-68
2022/07/26 00:30:09;;;;;;;9.45;4.90;;;;;;;20.40;100.00;96549.94;5070514;28;20127;-68
2022/07/26 00:32:35;;;;;;;13.43;5.18;;;;;;;20.64;100.00;96547.03;5071092;28;20059;-68
2022/07/26 00:35:01;;;;;;;12.90;4.93;;;;;;;20.45;100.00;96555.00;5080962;28;20052;-68
2022/07/26 00:37:27;;;;;;;8.18;4.53;;;;;;;20.50;100.00;96557.25;5079010;28;20093;-67
2022/07/26 00:39:52;;;;;;;13.90;5.18;;;;;;;20.62;100.00;96564.94;5074546;28;20040;-68
2022/07/26 00:42:17;;;;;;;8.77;4.50;;;;;;;20.71;100.00;96571.88;5073276;28;20043;-68
2022/07/26 00:44:44;;;;;;;8.75;4.40;;;;;;;20.90;100.00;96578.53;5074154;28;20684;-68
2022/07/26 00:47:10;;;;;;;9.70;4.53;;;;;;;21.43;100.00;96581.84;5073497;28;20033;-68
2022/07/26 00:49:35;;;;;;;10.32;5.03;;;;;;;21.56;100.00;96581.91;5073972;28;20505;-67
2022/07/26 00:52:02;;;;;;;9.90;4.40;;;;;;;21.53;100.00;96577.22;5073717;28;20040;-68
2022/07/26 00:54:27;;;;;;;11.30;4.50;;;;;;;21.55;100.00;96578.34;5055706;28;20400;-68
2022/07/26 00:56:53;;;;;;;12.13;4.50;;;;;;;21.55;100.00;96586.72;5073271;28;20111;-68
2022/07/26 00:59:19;;;;;;;14.65;5.30;;;;;;;21.32;100.00;96593.31;5073563;28;20378;-68
2022/07/26 01:01:44;;;;;;;13.90;5.53;;;;;;;21.15;100.00;96589.78;5073652;28;20085;-69
2022/07/26 01:04:09;;;;;;;10.05;4.38;;;;;;;21.06;100.00;96586.84;5073649;28;20493;-68
2022/07/26 01:06:35;;;;;;;8.25;4.03;;;;;;;20.79;100.00;96587.16;5073273;28;20040;-68
2022/07/26 01:09:01;;;;;;;8.77;4.97;;;;;;;20.66;100.00;96597.47;5073793;28;20040;-68
2022/07/26 01:11:27;;;;;;;11.63;4.82;;;;;;;20.72;100.00;96587.34;5055759;28;20036;-68
2022/07/26 01:13:52;;;;;;;8.80;4.28;;;;;;;20.91;100.00;96594.81;5073605;28;20112;-68
2022/07/26 01:16:18;;;;;;;10.65;4.25;;;;;;;21.18;100.00;96591.69;5073123;28;20054;-67
2022/07/26 01:18:43;;;;;;;10.27;4.35;;;;;;;21.13;100.00;96597.78;5073425;28;20040;-67
2022/07/26 01:21:09;;;;;;;10.18;4.63;;;;;;;20.88;100.00;96587.31;5073373;28;20051;-67
2022/07/26 01:23:35;;;;;;;10.02;5.25;;;;;;;20.75;100.00;96589.28;5055413;28;20035;-67
2022/07/26 01:26:01;;;;;;;13.27;5.05;;;;;;;20.73;100.00;96584.13;5072945;28;20032;-67
2022/07/26 01:28:27;;;;;;;13.98;4.38;;;;;;;20.81;100.00;96590.28;5073064;28;20364;-67
2022/07/26 01:30:52;;;;;;;13.45;4.40;;;;;;;20.86;100.00;96595.34;5073103;28;20396;-67
2022/07/26 01:33:17;;;;;;;12.90;4.35;;;;;;;20.83;100.00;96589.84;5073132;28;20103;-67
2022/07/26 01:35:43;;;;;;;11.52;4.50;;;;;;;20.89;100.00;96599.25;5072665;28;20032;-67
2022/07/26 01:38:09;;;;;;;9.85;4.43;;;;;;;21.09;100.00;96593.56;5073029;28;20514;-67
2022/07/26 01:40:34;;;;;;;10.38;4.13;;;;;;;21.30;100.00;96597.72;5072978;28;20549;-67
2022/07/26 01:43:00;;;;;;;7.80;4.30;;;;;;;21.60;100.00;96599.31;5078827;28;20036;-67
2022/07/26 01:45:25;;;;;;;8.55;4.07;;;;;;;21.55;100.00;96599.84;5081136;28;20044;-67
2022/07/26 01:47:51;;;;;;;13.05;4.85;;;;;;;21.69;100.00;96607.03;5062120;28;20063;-68
2022/07/26 01:50:17;;;;;;;9.93;4.30;;;;;;;21.79;100.00;96610.69;5077370;28;20059;-68
2022/07/26 01:52:43;;;;;;;14.23;5.15;;;;;;;21.85;100.00;96611.72;5075766;28;20036;-67
2022/07/26 01:55:08;;;;;;;14.05;4.78;;;;;;;21.83;100.00;96616.97;5072671;28;20036;-68
2022/07/26 01:57:34;;;;;;;9.80;3.72;;;;;;;21.84;100.00;96615.72;5072415;28;20028;-68
2022/07/26 02:00:15;;;;;;;11.77;4.40;;;;;;;21.75;100.00;96617.19;5056335;28;20402;-68
2022/07/26 02:02:40;;;;;;;15.55;4.85;;;;;;;21.64;100.00;96610.34;5072566;28;20120;-67
2022/07/26 02:05:06;;;;;;;8.82;4.07;;;;;;;21.49;100.00;96616.34;5072545;28;20032;-67
2022/07/26 02:07:38;;;;;;;14.85;4.82;;;;;;;21.53;100.00;96613.44;5072467;28;20393;-67
2022/07/26 02:10:05;;;;;;;9.88;4.57;;;;;;;21.60;100.00;96604.09;5072484;28;20095;-67
2022/07/26 02:12:30;;;;;;;12.48;4.55;;;;;;;21.53;100.00;96603.06;5072338;28;20029;-67
2022/07/26 02:14:56;;;;;;;12.45;4.47;;;;;;;21.50;100.00;96609.53;5071081;28;20036;-67
2022/07/26 02:17:22;;;;;;;13.48;4.95;;;;;;;21.46;100.00;96610.84;5072033;28;20033;-67
2022/07/26 02:19:47;;;;;;;14.75;4.70;;;;;;;21.45;100.00;96614.84;5071878;28;20056;-67
2022/07/26 02:22:13;;;;;;;14.07;4.75;;;;;;;21.25;100.00;96612.19;5072267;28;20029;-67
2022/07/26 02:24:38;;;;;;;9.38;4.32;;;;;;;21.09;100.00;96613.81;5071989;28;20036;-67
2022/07/26 02:27:04;;;;;;;7.88;4.45;;;;;;;21.16;100.00;96621.22;5053878;28;20033;-67
2022/07/26 02:29:29;;;;;;;8.65;4.50;;;;;;;21.11;100.00;96619.72;5071930;28;20043;-68
2022/07/26 02:31:56;;;;;;;11.57;5.20;;;;;;;21.04;100.00;96617.13;5073126;28;20043;-68
2022/07/26 02:34:22;;;;;;;11.80;4.68;;;;;;;21.00;100.00;96616.44;5075161;28;20032;-67
2022/07/26 02:36:47;;;;;;;14.50;5.10;;;;;;;21.22;100.00;96630.59;5075163;28;20021;-67
2022/07/26 02:39:13;;;;;;;11.98;4.68;;;;;;;21.18;100.00;96627.13;5072190;28;20170;-68
2022/07/26 02:41:38;;;;;;;10.77;5.50;;;;;;;21.33;100.00;96619.91;5072011;28;20115;-67
2022/07/26 02:44:05;;;;;;;9.73;5.82;;;;;;;21.32;100.00;96617.56;5071763;28;20028;-67
2022/07/26 02:46:30;;;;;;;14.70;5.07;;;;;;;21.33;100.00;96622.72;5071451;28;20024;-67
2022/07/26 02:48:56;;;;;;;12.48;4.82;;;;;;;21.31;100.00;96613.25;5071595;28;20736;-67
2022/07/26 02:51:22;;;;;;;8.43;4.40;;;;;;;21.22;100.00;96611.09;5071699;28;20028;-68
2022/07/26 02:53:47;;;;;;;11.40;5.15;;;;;;;21.26;100.00;96606.19;5071715;28;20033;-67
2022/07/26 02:56:12;;;;;;;8.25;4.72;;;;;;;21.18;100.00;96619.53;5071316;28;20033;-68
2022/07/26 02:58:38;;;;;;;7.10;4.40;;;;;;;21.27;100.00;96618.13;5076010;28;20040;-68
2022/07/26 03:01:04;;;;;;;11.18;4.88;;;;;;;21.34;100.00;96624.28;5090020;28;20046;-69
2022/07/26 03:03:29;;;;;;;8.35;4.82;;;;;;;21.30;100.00;96617.22;5090264;28;20033;-68
2022/07/26 03:05:55;;;;;;;11.85;4.78;;;;;;;21.26;100.00;96619.34;5073084;28;20043;-68
2022/07/26 03:08:20;;;;;;;8.70;5.07;;;;;;;21.21;100.00;96609.50;5053505;28;20028;-67
2022/07/26 03:10:46;;;;;;;10.65;4.80;;;;;;;21.08;100.00;96617.03;5053683;28;20104;-67
2022/07/26 03:13:11;;;;;;;15.02;5.00;;;;;;;21.03;100.00;96623.94;5070480;28;20047;-69
2022/07/26 03:15:37;;;;;;;8.73;4.65;;;;;;;21.00;100.00;96624.81;5071504;28;20093;-67
2022/07/26 03:18:02;;;;;;;12.38;4.82;;;;;;;21.07;100.00;96632.16;5073608;28;20413;-68
2022/07/26 03:20:28;;;;;;;7.10;4.38;;;;;;;21.03;100.00;96632.28;5075608;28;20032;-68
2022/07/26 03:22:53;;;;;;;8.90;4.07;;;;;;;21.06;100.00;96625.81;5091719;28;20039;-68
2022/07/26 03:25:19;;;;;;;6.07;3.78;;;;;;;21.04;100.00;96625.47;5082020;28;20024;-66
2022/07/26 03:27:44;;;;;;;9.13;4.25;;;;;;;21.11;100.00;96628.09;5071116;28;20074;-67
2022/07/26 03:30:10;;;;;;;8.70;4.40;;;;;;;21.08;100.00;96634.53;5071303;28;20078;-68
2022/07/26 03:32:37;;;;;;;9.70;3.67;;;;;;;21.12;100.00;96621.31;5071178;28;20488;-68
2022/07/26 03:35:03;;;;;;;8.50;4.07;;;;;;;21.14;100.00;96610.50;5071412;28;20029;-68
2022/07/26 03:37:28;;;;;;;8.10;3.38;;;;;;;21.26;100.00;96620.13;5071555;28;20033;-68
2022/07/26 03:39:54;;;;;;;7.10;3.83;;;;;;;21.29;100.00;96610.88;5070699;28;20051;-68
2022/07/26 03:42:20;;;;;;;9.30;3.67;;;;;;;21.26;100.00;96608.97;5071089;28;20074;-68
2022/07/26 03:44:47;;;;;;;10.93;3.58;;;;;;;21.24;100.00;96625.34;5036936;28;20029;-69
2022/07/26 03:47:19;;;;;;;14.75;3.72;;;;;;;21.31;100.00;96632.75;5038011;28;20115;-68
2022/07/26 03:49:48;;;;;;;14.48;3.47;;;;;;;21.29;100.00;96624.03;5071388;28;20116;-68
2022/07/26 03:52:14;;;;;;;12.77;3.08;;;;;;;21.30;100.00;96623.59;5071212;28;20032;-68
2022/07/26 03:54:39;;;;;;;7.30;3.10;;;;;;;21.35;100.00;96623.03;5071040;28;20034;-68
2022/07/26 03:57:04;;;;;;;7.25;3.17;;;;;;;21.31;100.00;96624.38;5070478;28;20086;-68
2022/07/26 03:59:30;;;;;;;6.55;3.00;;;;;;;21.17;100.00;96619.97;5052886;28;20024;-68
2022/07/26 04:01:55;;;;;;;6.03;3.50;;;;;;;21.26;100.00;96625.69;5071732;28;20528;-68
2022/07/26 04:04:21;;;;;;;12.27;4.00;;;;;;;21.11;100.00;96628.09;5070997;28;20041;-68
2022/07/26 04:06:46;;;;;;;7.78;3.33;;;;;;;21.04;100.00;96633.06;5078383;23;20071;-63
2022/07/26 04:09:13;;;;;;;5.53;3.13;;;;;;;21.05;100.00;96632.63;5050898;28;20100;-63
2022/07/26 04:11:39;;;;;;;11.30;3.65;;;;;;;20.91;100.00;96642.13;5051021;28;20455;-63
2022/07/26 04:14:05;;;;;;;6.18;3.40;;;;;;;20.76;100.00;96640.91;5051422;28;20029;-63
2022/07/26 04:16:31;;;;;;;8.55;3.78;;;;;;;20.93;100.00;96631.34;5050848;28;20074;-63
2022/07/26 04:18:56;;;;;;;5.60;3.30;;;;;;;20.75;100.00;96637.34;5054606;28;20075;-63
2022/07/26 04:21:22;;;;;;;7.65;3.70;;;;;;;20.53;100.00;96639.84;5054642;28;20032;-63
2022/07/26 04:23:48;;;;;;;9.45;3.70;;;;;;;20.23;100.00;96641.72;5053270;28;20052;-63
2022/07/26 04:26:13;;;;;;;7.95;3.80;;;;;;;20.11;100.00;96642.41;5054049;28;20466;-64
2022/07/26 04:28:41;;;;;;;8.75;3.97;;;;;;;20.02;100.00;96643.00;5052972;28;20033;-64
2022/07/26 04:31:07;;;;;;;6.63;3.53;;;;;;;19.97;100.00;96642.72;5054381;28;20060;-63
2022/07/26 04:33:33;;;;;;;7.28;4.00;;;;;;;19.99;100.00;96641.09;5054699;28;20468;-64
2022/07/26 04:35:59;;;;;;;7.13;4.40;;;;;;;19.90;100.00;96640.09;5054452;28;20524;-63
2022/07/26 04:38:24;;;;;;;18.23;4.55;;;;;;;19.90;100.00;96637.31;5054891;28;20074;-63
2022/07/26 04:40:51;;;;;;;11.00;4.35;;;;;;;19.89;100.00;96644.88;5054382;28;20037;-64
2022/07/26 04:43:17;;;;;;;8.98;4.30;;;;;;;19.86;100.00;96640.97;5054242;28;20091;-64
2022/07/26 04:45:46;;;;;;;9.00;3.95;;;;;;;19.61;100.00;96638.69;5055266;28;20028;-64
2022/07/26 04:48:13;;;;;;;10.18;5.18;;;;;;;19.27;100.00;96639.72;5055205;28;20107;-63
2022/07/26 04:50:38;;;;;;;9.10;4.82;;;;;;;18.97;100.00;96643.44;5054549;28;20116;-64
2022/07/26 04:53:04;;;;;;;7.97;4.35;;;;;;;18.97;100.00;96649.00;5054301;28;20442;-64
2022/07/26 04:55:30;;;;;;;10.25;4.50;;;;;;;18.88;100.00;96646.00;5054114;28;20029;-64
2022/07/26 04:57:56;;;;;;;9.35;5.00;;;;;;;18.82;100.00;96637.38;5054345;28;20377;-65
2022/07/26 05:00:23;;;;;;;12.18;5.68;;;;;;;18.69;100.00;96636.38;5052304;28;20033;-64
2022/07/26 05:02:59;;;;;;;10.05;5.40;;;;;;;18.47;100.00;96636.72;5053509;28;20066;-64
2022/07/26 05:05:28;;;;;;;13.65;5.60;;;;;;;18.45;100.00;96636.34;5053272;28;20037;-64
2022/07/26 05:07:55;;;;;;;8.70;4.78;;;;;;;18.77;100.00;96637.81;5054225;28;20082;-63
2022/07/26 05:10:28;;;;;;;8.30;5.10;;;;;;;19.32;100.00;96641.25;5057725;28;20029;-63
2022/07/26 05:12:53;;;;;;;10.85;4.60;;;;;;;19.63;100.00;96644.59;5059727;28;20331;-63
2022/07/26 05:15:19;;;;;;;10.20;4.38;;;;;;;19.88;100.00;96654.44;5054251;28;20044;-62
2022/07/26 05:17:44;;;;;;;12.82;3.75;;;;;;;19.69;100.00;96650.41;5053969;28;20469;-63
2022/07/26 05:20:13;;;;;;;9.27;3.72;;;;;;;19.88;100.00;96648.88;5054050;28;20127;-63
2022/07/26 05:22:39;;;;;;;6.13;3.40;;;;;;;19.98;100.00;96649.84;5055151;28;20485;-63
2022/07/26 05:25:06;;;;;;;7.97;3.53;;;;;;;20.00;100.00;96653.75;5056704;28;20037;-64
2022/07/26 05:27:32;;;;;;;9.23;3.25;;;;;;;20.07;100.00;96652.03;5051961;28;20032;-65
2022/07/26 05:29:57;;;;;;;7.45;3.50;;;;;;;20.20;100.00;96655.72;5053165;28;20485;-65
2022/07/26 05:32:23;;;;;;;6.10;3.15;;;;;;;20.41;100.00;96652.44;5051957;28;20029;-65
2022/07/26 05:34:49;;;;;;;10.82;4.35;;;;;;;20.71;100.00;96649.81;5053443;28;20033;-64
2022/07/26 05:37:14;;;;;;;9.68;3.53;;;;;;;20.94;100.00;96649.63;5052791;28;20035;-64
2022/07/26 05:39:40;;;;;;;6.63;2.70;;;;;;;21.27;100.00;96657.13;5052961;28;20040;-63
2022/07/26 05:42:05;;;;;;;7.20;2.42;;;;;;;21.43;100.00;96661.84;5068551;28;20112;-64
2022/07/26 05:44:31;;;;;;;16.35;2.60;;;;;;;21.30;100.00;96654.25;5053155;28;20029;-64
2022/07/26 05:46:56;;;;;;;5.13;2.40;;;;;;;21.56;100.00;96654.38;5052356;28;20562;-63
2022/07/26 05:49:21;;;;;;;7.75;2.65;;;;;;;21.79;100.00;96658.91;5054687;28;20500;-63
2022/07/26 05:51:47;;;;;;;5.05;2.35;;;;;;;22.00;100.00;96659.47;5053028;28;20029;-64
2022/07/26 05:54:12;;;;;;;5.13;1.85;;;;;;;22.06;100.00;96664.06;5053544;28;20029;-63
2022/07/26 05:56:38;;;;;;;4.50;1.92;;;;;;;22.42;100.00;96654.66;5052491;28;20028;-63
2022/07/26 05:59:03;;;;;;;3.92;2.05;;;;;;;22.64;100.00;96660.31;5052647;28;20037;-64
2022/07/26 06:01:31;;;;;;;5.28;1.63;;;;;;;23.25;100.00;96663.13;5068008;28;20120;-64
2022/07/26 06:03:57;;;;;;;4.25;2.08;;;;;;;23.57;98.98;96662.00;5052505;28;20113;-64
2022/07/26 06:06:23;;;;;;;5.75;1.55;;;;;;;23.48;100.00;96662.72;5051695;28;20029;-62
2022/07/26 06:08:48;;;;;;;4.57;2.00;;;;;;;23.49;97.15;96669.06;5052305;28;20037;-63
2022/07/26 06:11:14;;;;;;;5.47;1.70;;;;;;;23.47;96.64;96665.94;5051756;28;20033;-63
2022/07/26 06:13:39;;;;;;;3.35;1.52;;;;;;;23.19;98.95;96660.13;5052860;28;20029;-65
2022/07/26 06:16:05;;;;;;;5.40;1.58;;;;;;;22.98;100.00;96663.63;5052095;28;20040;-65
2022/07/26 06:18:30;;;;;;;6.47;2.75;;;;;;;22.46;100.00;96666.47;5053440;28;20126;-66
2022/07/26 06:20:56;;;;;;;9.35;2.25;;;;;;;22.26;100.00;96677.84;5053903;28;20542;-66
2022/07/26 06:23:21;;;;;;;6.97;3.67;;;;;;;21.87;100.00;96674.19;5054370;28;20530;-64
2022/07/26 06:25:47;;;;;;;3.40;1.70;;;;;;;21.54;100.00;96676.31;5053123;28;20056;-64
2022/07/26 06:28:12;;;;;;;4.00;2.10;;;;;;;21.38;100.00;96680.66;5051890;28;20345;-63
2022/07/26 06:30:38;;;;;;;7.13;1.75;;;;;;;21.06;100.00;96675.16;5051969;28;20053;-63
2022/07/26 06:33:04;;;;;;;4.28;1.52;;;;;;;21.04;100.00;96681.16;5051946;28;20056;-63
2022/07/26 06:35:30;;;;;;;5.22;1.90;;;;;;;21.28;100.00;96676.16;5052401;28;20029;-66
2022/07/26 06:37:57;;;;;;;6.53;1.73;;;;;;;21.46;100.00;96672.94;5051663;28;20025;-66
2022/07/26 06:40:23;;;;;;;4.45;1.60;;;;;;;21.77;100.00;96673.28;5053029;28;20562;-64
2022/07/26 06:42:48;;;;;;;4.68;1.63;;;;;;;22.12;100.00;96673.44;5053709;28;20060;-63
2022/07/26 06:45:14;;;;;;;3.40;1.70;;;;;;;22.06;100.00;96674.47;5052077;28;20061;-62
2022/07/26 06:47:39;;;;;;;3.75;1.83;;;;;;;22.16;100.00;96681.69;5051817;28;20083;-64
2022/07/26 06:50:06;;;;;;;5.53;2.03;;;;;;;22.23;100.00;96687.06;5053826;28;20500;-65
2022/07/26 06:52:31;;;;;;;7.57;2.03;;;;;;;22.05;100.00;96684.03;5055362;28;20084;-64
2022/07/26 06:54:58;;;;;;;3.92;1.90;;;;;;;21.98;100.00;96687.03;5055157;28;20059;-65
2022/07/26 06:57:24;;;;;;;5.68;1.85;;;;;;;21.93;100.00;96685.56;5053305;28;20040;-65
2022/07/26 06:59:49;;;;;;;4.95;1.88;;;;;;;21.94;100.00;96687.91;5054907;28;20037;-65
2022/07/26 07:02:15;;;;;;;3.05;1.77;;;;;;;22.09;100.00;96687.50;5054847;28;20033;-65
2022/07/26 07:04:40;;;;;;;5.55;1.58;;;;;;;22.32;100.00;96681.63;5053291;28;20078;-64
2022/07/26 07:07:07;;;;;;;5.35;1.65;;;;;;;22.51;100.00;96681.88;5051736;28;20047;-66
2022/07/26 07:09:33;;;;;;;9.48;2.20;;;;;;;22.53;100.00;96685.00;5052503;28;20032;-66
2022/07/26 07:12:00;;;;;;;4.22;2.13;;;;;;;22.49;100.00;96696.28;5052162;28;20037;-64
2022/07/26 07:14:26;;;;;;;5.30;2.63;;;;;;;22.45;100.00;96690.00;5051452;28;20700;-64
2022/07/26 07:16:51;;;;;;;4.70;1.70;;;;;;;22.43;100.00;96688.91;5052136;28;20025;-64
2022/07/26 07:19:17;;;;;;;5.70;2.42;;;;;;;22.84;100.00;96682.41;5051876;28;20025;-63
2022/07/26 07:21:42;;;;;;;8.95;2.10;;;;;;;22.89;100.00;96679.03;5051682;28;20084;-64
2022/07/26 07:24:08;;;;;;;3.80;2.33;;;;;;;23.08;100.00;96690.44;5051959;28;20033;-63
2022/07/26 07:26:33;;;;;;;4.82;1.98;;;;;;;22.59;100.00;96679.63;5068767;28;20033;-64
2022/07/26 07:28:59;;;;;;;8.52;2.08;;;;;;;22.80;100.00;96687.31;5051220;28;20033;-63
2022/07/26 07:31:25;;;;;;;4.68;1.75;;;;;;;22.39;100.00;96688.25;5051405;28;20021;-62
2022/07/26 07:33:51;;;;;;;8.52;1.92;;;;;;;22.44;100.00;96687.69;5051499;28;20029;-64
2022/07/26 07:36:16;;;;;;;4.90;1.77;;;;;;;22.26;100.00;96683.44;5051077;28;20454;-65
2022/07/26 07:38:44;;;;;;;4.60;2.00;;;;;;;22.25;100.00;96692.22;5051196;28;20033;-65
2022/07/26 07:41:09;;;;;;;5.22;1.75;;;;;;;22.46;100.00;96685.22;5049569;28;20435;-63
2022/07/26 07:43:35;;;;;;;5.53;1.75;;;;;;;22.80;100.00;96689.34;5050939;28;20036;-63
2022/07/26 07:46:00;;;;;;;7.03;1.92;;;;;;;22.91;100.00;96687.75;5049189;28;20028;-63
2022/07/26 07:48:25;;;;;;;4.30;2.00;;;;;;;23.18;97.74;96685.72;5053203;28;20029;-63
2022/07/26 07:50:51;;;;;;;8.93;2.10;;;;;;;23.15;100.00;96683.84;5054935;28;20087;-62
2022/07/26 07:53:16;;;;;;;2.75;1.67;;;;;;;22.85;100.00;96681.19;5056962;28;20056;-64
2022/07/26 07:55:42;;;;;;;6.70;1.67;;;;;;;23.29;98.83;96681.31;5055820;28;20393;-63
2022/07/26 07:58:07;;;;;;;5.00;2.00;;;;;;;23.60;96.83;96686.22;5055670;28;20460;-64
2022/07/26 08:00:32;;;;;;;5.05;1.98;;;;;;;23.83;95.88;96689.84;5056302;28;20033;-64
2022/07/26 08:02:58;;;;;;;8.73;2.10;;;;;;;23.70;95.86;96686.28;5055436;28;20060;-64
2022/07/26 08:05:23;;;;;;;5.38;2.08;;;;;;;23.70;94.84;96683.50;5054863;28;20397;-65
2022/07/26 08:07:48;;;;;;;3.90;1.80;;;;;;;23.51;95.87;96683.38;5056545;28;20118;-63
2022/07/26 08:10:15;;;;;;;5.40;1.48;;;;;;;23.59;92.09;96684.69;5055359;28;20127;-63
2022/07/26 08:12:41;;;;;;;3.17;1.60;;;;;;;23.31;91.58;96682.91;5056057;28;20041;-64
2022/07/26 08:15:07;;;;;;;6.03;1.90;;;;;;;23.34;93.13;96673.63;5057487;28;20122;-63
2022/07/26 08:17:32;;;;;;;5.65;1.23;;;;;;;23.17;93.99;96684.94;5057079;28;20204;-64
2022/07/26 08:19:58;;;;;;;3.75;1.80;;;;;;;23.41;92.29;96685.31;5058604;28;20094;-66
2022/07/26 08:22:23;;;;;;;3.03;1.27;;;;;;;23.47;92.08;96685.50;5057702;28;20036;-64
2022/07/26 08:24:51;;;;;;;5.13;2.03;;;;;;;23.48;91.78;96685.06;5060046;28;20492;-64
2022/07/26 08:27:17;;;;;;;4.25;2.20;;;;;;;23.24;91.41;96683.91;5059501;28;20025;-64
2022/07/26 08:29:42;;;;;;;2.50;1.20;;;;;;;23.51;89.80;96680.56;5062986;28;20056;-64
2022/07/26 08:32:08;;;;;;;3.10;1.42;;;;;;;23.79;89.22;96681.56;5064666;28;20033;-63
2022/07/26 08:34:34;;;;;;;4.38;1.42;;;;;;;24.02;88.34;96673.97;5072450;28;20060;-63
2022/07/26 08:36:59;;;;;;;3.33;1.40;;;;;;;24.34;86.43;96672.72;5054992;28;20033;-65
2022/07/26 08:39:25;;;;;;;2.60;1.38;;;;;;;25.34;82.17;96672.75;5057042;28;20029;-64
2022/07/26 08:41:50;;;;;;;3.55;1.83;;;;;;;25.35;79.60;96666.69;5055174;28;20041;-64
2022/07/26 08:44:16;;;;;;;4.40;1.40;;;;;;;25.06;81.99;96678.28;5056042;28;20104;-64
2022/07/26 08:46:41;;;;;;;4.63;1.42;;;;;;;25.02;80.94;96674.09;5054187;28;20095;-63
2022/07/26 08:49:09;;;;;;;2.42;1.30;;;;;;;24.40;85.52;96678.53;5055821;28;20032;-64
2022/07/26 08:51:41;;;;;;;2.55;1.30;;;;;;;24.41;84.86;96680.09;5056721;28;20033;-64
2022/07/26 08:54:08;;;;;;;3.05;1.50;;;;;;;24.97;82.41;96683.88;5056933;28;20469;-64
2022/07/26 08:56:39;;;;;;;4.95;1.40;;;;;;;25.60;80.62;96692.06;5055358;28;20394;-63
2022/07/26 08:59:15;;;;;;;4.65;1.20;;;;;;;26.02;76.12;96683.00;5056619;28;20029;-64
2022/07/26 09:01:59;;;;;;;4.22;1.50;;;;;;;26.34;76.91;96692.75;5055905;28;20065;-64
2022/07/26 09:04:34;;;;;;;2.60;1.40;;;;;;;26.15;75.32;96688.47;5056710;28;20108;-64
2022/07/26 09:07:05;;;;;;;3.58;1.40;;;;;;;26.40;74.07;96695.69;5054533;28;20584;-63
2022/07/26 09:09:32;;;;;;;2.38;1.23;;;;;;;26.71;71.79;96695.47;5055665;28;20588;-63
2022/07/26 09:12:12;;;;;;;4.10;1.58;;;;;;;25.81;75.29;96699.56;5055034;28;20029;-64
2022/07/26 09:14:38;;;;;;;3.97;1.48;;;;;;;25.52;77.04;96697.22;5055088;28;20494;-64
2022/07/26 09:17:04;;;;;;;3.10;1.17;;;;;;;24.91;79.56;96697.72;5053225;28;20079;-63
2022/07/26 09:19:30;;;;;;;3.10;1.33;;;;;;;24.84;80.71;96700.81;5068957;28;20474;-64
2022/07/26 09:22:04;;;;;;;2.65;1.30;;;;;;;24.40;83.86;96698.13;5055671;28;20047;-64
2022/07/26 09:24:37;;;;;;;6.90;3.10;;;;;;;24.31;83.14;96704.47;5055952;28;20109;-63
2022/07/26 09:27:05;;;;;;;4.50;1.73;;;;;;;23.80;86.71;96708.31;5058712;28;20032;-64
2022/07/26 09:29:48;;;;;;;3.05;1.52;;;;;;;23.88;87.53;96705.25;5059461;28;20037;-63
2022/07/26 09:32:22;;;;;;;5.60;1.88;;;;;;;24.40;84.84;96700.94;5056517;28;20093;-63
2022/07/26 09:34:50;;;;;;;5.20;1.55;;;;;;;25.34;78.00;96703.59;5054490;28;20159;-64
2022/07/26 09:37:16;;;;;;;4.13;1.35;;;;;;;25.78;75.28;96702.50;5053428;28;20029;-64
2022/07/26 09:39:59;;;;;;;2.53;1.60;;;;;;;26.36;73.09;96706.34;5053216;28;20025;-65
2022/07/26 09:42:26;;;;;;;3.83;1.40;;;;;;;27.93;65.34;96706.25;5053168;28;20047;-64
2022/07/26 09:44:53;;;;;;;4.05;1.70;;;;;;;27.69;67.26;96691.44;5052946;28;20044;-65
2022/07/26 09:47:19;;;;;;;2.13;1.35;;;;;;;26.58;68.70;96701.28;5053001;28;20029;-64
2022/07/26 09:49:44;;;;;;;2.85;1.58;;;;;;;26.18;71.47;96693.13;5035175;28;20079;-64
2022/07/26 09:52:20;;;;;;;2.78;1.33;;;;;;;25.31;73.92;96696.88;5053215;28;20032;-61
2022/07/26 09:54:48;;;;;;;2.65;1.50;;;;;;;25.53;74.04;96688.34;5052652;28;20033;-63
2022/07/26 09:57:16;;;;;;;3.40;1.70;;;;;;;26.10;71.94;96692.69;5050983;28;20444;-63
2022/07/26 09:59:42;;;;;;;5.07;1.60;;;;;;;26.22;69.94;96693.75;5052579;28;20052;-63
2022/07/26 10:02:07;;;;;;;3.47;1.52;;;;;;;26.17;68.19;96695.16;5052304;28;20056;-64
2022/07/26 10:04:33;;;;;;;5.30;1.60;;;;;;;25.67;70.27;96694.56;5053289;28;20450;-64
2022/07/26 10:07:00;;;;;;;2.28;1.40;;;;;;;25.84;71.09;96692.22;5053063;28;20385;-63
2022/07/26 10:09:34;;;;;;;3.92;1.33;;;;;;;26.00;69.39;96699.56;5052693;28;20112;-64
2022/07/26 10:12:04;;;;;;;4.70;1.40;;;;;;;25.85;71.03;96697.34;5052340;28;20025;-64
2022/07/26 10:14:32;;;;;;;4.47;1.75;;;;;;;25.97;70.44;96689.28;5052076;28;20029;-64
2022/07/26 10:17:21;;;;;;;5.47;1.73;;;;;;;25.81;71.49;96690.38;5052341;28;20378;-64
2022/07/26 10:19:46;;;;;;;7.00;1.73;;;;;;;25.43;73.20;96697.22;5051452;28;20032;-64
2022/07/26 10:22:21;;;;;;;2.83;1.58;;;;;;;24.78;74.84;96699.88;5052440;28;20055;-63
2022/07/26 10:24:47;;;;;;;3.00;1.63;;;;;;;24.72;75.84;96699.69;5052125;28;20056;-63
2022/07/26 10:27:40;;;;;;;5.70;3.25;;;;;;;24.72;77.43;96699.69;5052259;28;20076;-63
2022/07/26 10:30:18;;;;;;;6.05;1.60;;;;;;;24.70;78.09;96701.38;5050867;28;20051;-64
2022/07/26 10:32:50;;;;;;;4.90;1.80;;;;;;;24.37;79.41;96701.84;5051891;28;20029;-63
2022/07/26 10:35:41;;;;;;;3.85;1.90;;;;;;;23.87;82.72;96707.28;5051884;28;20039;-62
2022/07/26 10:38:13;;;;;;;3.55;1.90;;;;;;;24.12;82.83;96711.19;5052875;28;20036;-63
2022/07/26 10:40:56;;;;;;;3.80;1.90;;;;;;;23.85;83.96;96709.75;5052079;28;20082;-63
2022/07/26 10:43:21;;;;;;;6.60;1.98;;;;;;;23.77;84.99;96705.63;5052121;28;20033;-62
2022/07/26 10:45:47;;;;;;;6.43;2.40;;;;;;;23.92;83.36;96709.50;5049983;28;20025;-63
2022/07/26 10:48:22;;;;;;;10.55;2.60;;;;;;;23.89;83.54;96704.03;5051659;28;20060;-63
2022/07/26 10:50:50;;;;;;;3.72;1.80;;;;;;;23.72;84.46;96707.00;5053242;28;20029;-63
2022/07/26 10:53:18;;;;;;;3.65;1.80;;;;;;;23.70;86.21;96701.09;5053594;28;20025;-63
2022/07/26 10:55:55;;;;;;;4.10;2.00;;;;;;;23.67;85.33;96699.97;5052560;28;20033;-63
2022/07/26 10:58:22;;;;;;;5.35;2.30;;;;;;;23.85;82.75;96698.56;5051943;28;20067;-62
2022/07/26 11:01:02;;;;;;;4.35;2.25;;;;;;;23.65;90.29;96693.28;5051901;28;20029;-63
2022/07/26 11:03:36;;;;;;;4.30;1.80;;;;;;;23.53;88.29;96694.09;5068289;28;20040;-63
2022/07/26 11:06:12;;;;;;;6.13;2.50;;;;;;;23.54;88.09;96692.88;5057640;28;20094;-63
2022/07/26 11:08:37;;;;;;;5.05;2.42;;;;;;;23.47;92.71;96696.69;5054093;28;20033;-63
2022/07/26 11:11:03;;;;;;;6.40;2.58;;;;;;;23.39;90.37;96690.59;5052438;28;20382;-63
2022/07/26 11:13:32;;;;;;;7.35;2.30;;;;;;;23.52;90.21;96689.75;5050103;28;20064;-63
2022/07/26 11:16:00;;;;;;;6.25;2.20;;;;;;;23.51;90.69;96688.97;5051027;28;20068;-63
2022/07/26 11:18:33;;;;;;;8.02;2.95;;;;;;;23.80;86.63;96693.56;5051283;28;20105;-63
2022/07/26 11:21:12;;;;;;;6.35;2.25;;;;;;;23.90;88.07;96691.63;5051807;28;20029;-64
2022/07/26 11:23:41;;;;;;;7.75;3.78;;;;;;;24.18;86.63;96681.34;5051832;28;20056;-64
2022/07/26 11:26:15;;;;;;;7.60;3.50;;;;;;;24.72;84.00;96687.69;5048868;28;20029;-63